KFDK/FDK METAR and TAF weather

Enter ICAO airport designator
Station Type Date Time Source
KFDK METAR 2019/08/20 10:10 UTC NOAA

KFDK 201010Z AUTO 00000KT 10SM CLR 22/21 A3010 RMK AO2 LTG DSNT E AND W


Station Type Date Time Source
KFDK Decoded METAR 2019/08/20 10:10 UTC NOAA

Frederick, Frederick Municipal Airport, MD, United States (KFDK) 39-25-03N 077-22-28W
Aug 20, 2019 - 06:10 AM EDT / 2019.08.20 1010 UTC
Wind: Calm:0
Visibility: 10 mile(s):0
Sky conditions: clear
Weather: Lightning observed
Temperature: 71 F (22 C)
Dew Point: 69 F (21 C)
Relative Humidity: 94%
Pressure (altimeter): 30.1 in. Hg (1019 hPa)
ob: KFDK 201010Z AUTO 00000KT 10SM CLR 22/21 A3010 RMK AO2 LTG DSNT E AND W
cycle: 10

Station Type Date Time Source
KFDK TAF UTC NOAA

Error!

Example: see airport list